createdAt,value
2022-12-31T00:00:22.968Z,14.75
2022-12-31T00:02:49.498Z,17.65
2022-12-31T00:05:16.002Z,19.05
2022-12-31T00:10:07.957Z,15.27
2022-12-31T00:12:34.321Z,16.83
2022-12-31T00:15:00.721Z,16.60
2022-12-31T00:17:27.103Z,17.13
2022-12-31T00:19:53.457Z,18.08
2022-12-31T00:22:19.837Z,17.55
2022-12-31T00:24:46.301Z,18.95
2022-12-31T00:27:12.733Z,17.90
2022-12-31T00:29:39.130Z,16.67
2022-12-31T00:32:05.651Z,18.73
2022-12-31T00:34:32.397Z,19.92
2022-12-31T00:36:58.794Z,16.38
2022-12-31T00:39:25.167Z,17.27
2022-12-31T00:41:51.564Z,19.45
2022-12-31T00:44:17.965Z,20.67
2022-12-31T00:49:10.673Z,17.60
2022-12-31T00:51:37.088Z,19.10
2022-12-31T00:54:03.543Z,16.23
2022-12-31T00:56:30.551Z,17.70
2022-12-31T00:58:57.476Z,17.75
2022-12-31T01:01:28.205Z,21.05
2022-12-31T01:03:56.096Z,17.42
2022-12-31T01:06:22.941Z,20.25
2022-12-31T01:08:49.681Z,17.98
2022-12-31T01:11:19.748Z,18.20
2022-12-31T01:13:56.623Z,19.40
2022-12-31T01:16:27.961Z,16.90
2022-12-31T01:18:54.729Z,17.52
2022-12-31T01:21:21.571Z,16.30
2022-12-31T01:23:48.118Z,14.45
2022-12-31T01:26:15.109Z,17.23
2022-12-31T01:28:42.040Z,16.50
2022-12-31T01:31:10.033Z,16.08
2022-12-31T01:33:36.690Z,20.17
2022-12-31T01:36:07.250Z,19.38
2022-12-31T01:38:34.540Z,17.85
2022-12-31T01:41:01.199Z,18.35
2022-12-31T01:43:48.684Z,16.33
2022-12-31T01:46:35.295Z,17.40
2022-12-31T01:49:13.474Z,15.70
2022-12-31T01:51:41.559Z,18.58
2022-12-31T01:54:08.921Z,15.82
2022-12-31T01:56:35.771Z,14.25
2022-12-31T01:59:04.471Z,16.27
2022-12-31T02:01:32.629Z,16.63
2022-12-31T02:04:00.296Z,18.88
2022-12-31T02:06:30.994Z,17.42
2022-12-31T02:08:57.857Z,14.75
2022-12-31T02:11:24.323Z,15.75
2022-12-31T02:13:56.527Z,15.73
2022-12-31T02:16:44.896Z,13.10
2022-12-31T02:19:18.380Z,13.93
2022-12-31T02:21:47.672Z,18.02
2022-12-31T02:24:17.010Z,16.77
2022-12-31T02:27:02.201Z,18.25
2022-12-31T02:29:31.518Z,15.70
2022-12-31T02:32:00.239Z,18.27
2022-12-31T02:34:35.572Z,16.25
2022-12-31T02:37:03.907Z,17.83
2022-12-31T02:39:30.777Z,18.38
2022-12-31T02:41:57.175Z,15.73
2022-12-31T02:44:25.541Z,16.83
2022-12-31T02:47:10.289Z,18.52
2022-12-31T02:49:45.701Z,17.33
2022-12-31T02:52:21.331Z,15.93
2022-12-31T02:54:47.675Z,16.35
2022-12-31T02:57:40.370Z,22.08
2022-12-31T03:00:27.983Z,20.77
2022-12-31T03:02:55.108Z,18.27
2022-12-31T03:05:23.128Z,19.58
2022-12-31T03:07:49.521Z,19.70
2022-12-31T03:10:16.334Z,20.63
2022-12-31T03:12:49.931Z,19.92
2022-12-31T03:15:27.329Z,19.63
2022-12-31T03:17:53.686Z,20.42
2022-12-31T03:20:39.465Z,19.75
2022-12-31T03:23:07.069Z,19.80
2022-12-31T03:25:37.827Z,18.45
2022-12-31T03:28:08.681Z,26.70
2022-12-31T03:30:35.806Z,21.58
2022-12-31T03:33:02.624Z,21.88
2022-12-31T03:35:29.891Z,23.08
2022-12-31T03:37:56.689Z,26.20
2022-12-31T03:40:24.707Z,20.45
2022-12-31T03:42:51.202Z,25.33
2022-12-31T03:45:17.680Z,20.63
2022-12-31T03:47:44.273Z,24.98
2022-12-31T03:50:11.949Z,24.40
2022-12-31T03:52:38.764Z,21.67
2022-12-31T03:55:05.509Z,27.65
2022-12-31T03:57:32.229Z,20.50
2022-12-31T03:59:58.862Z,19.58
2022-12-31T04:02:28.920Z,25.92
2022-12-31T04:04:56.009Z,23.13
2022-12-31T04:07:22.442Z,20.90
2022-12-31T04:09:48.785Z,19.50
2022-12-31T04:12:15.255Z,20.75
2022-12-31T04:14:41.599Z,23.00
2022-12-31T04:17:07.989Z,24.50
2022-12-31T04:19:34.450Z,17.30
2022-12-31T04:22:00.822Z,25.77
2022-12-31T04:24:27.384Z,28.13
2022-12-31T04:26:53.823Z,23.77
2022-12-31T04:29:20.303Z,18.92
2022-12-31T04:31:46.664Z,23.30
2022-12-31T04:34:13.108Z,20.95
2022-12-31T04:36:39.502Z,22.10
2022-12-31T04:39:05.855Z,18.08
2022-12-31T04:41:32.303Z,21.33
2022-12-31T04:43:59.072Z,21.50
2022-12-31T04:46:26.601Z,21.02
2022-12-31T04:48:53.178Z,20.35
2022-12-31T04:51:19.882Z,18.15
2022-12-31T04:53:46.707Z,20.10
2022-12-31T04:56:13.339Z,17.70
2022-12-31T04:58:39.849Z,19.00
2022-12-31T05:01:06.674Z,16.95
2022-12-31T05:03:33.549Z,19.65
2022-12-31T05:06:01.602Z,17.75
2022-12-31T05:08:28.348Z,18.58
2022-12-31T05:10:54.746Z,19.92
2022-12-31T05:13:21.160Z,19.38
2022-12-31T05:15:47.732Z,19.27
2022-12-31T05:18:14.301Z,20.17
2022-12-31T05:20:40.643Z,24.02
2022-12-31T05:23:07.152Z,21.48
2022-12-31T05:25:33.950Z,18.35
2022-12-31T05:28:00.455Z,20.17
2022-12-31T05:30:26.861Z,18.13
2022-12-31T05:32:53.282Z,16.25
2022-12-31T05:35:19.607Z,20.30
2022-12-31T05:37:46.136Z,20.70
2022-12-31T05:40:12.881Z,18.05
2022-12-31T05:42:39.335Z,19.30
2022-12-31T05:45:06.344Z,19.83
2022-12-31T05:47:32.811Z,19.83
2022-12-31T05:49:59.253Z,17.42
2022-12-31T05:52:25.664Z,18.25
2022-12-31T05:54:52.085Z,22.02
2022-12-31T05:57:18.426Z,21.33
2022-12-31T05:59:44.793Z,20.38
2022-12-31T06:02:11.169Z,16.80
2022-12-31T06:04:37.517Z,23.50
2022-12-31T06:07:03.871Z,21.08
2022-12-31T06:09:30.286Z,19.48
2022-12-31T06:11:56.629Z,18.60
2022-12-31T06:14:23.024Z,17.52
2022-12-31T06:16:49.418Z,20.05
2022-12-31T06:19:15.757Z,19.85
2022-12-31T06:21:42.096Z,17.10
2022-12-31T06:24:08.492Z,17.60
2022-12-31T06:26:35.311Z,18.75
2022-12-31T06:29:01.627Z,21.70
2022-12-31T06:31:28.135Z,18.58
2022-12-31T06:33:54.838Z,18.30
2022-12-31T06:36:22.359Z,18.02
2022-12-31T06:38:49.003Z,21.52
2022-12-31T06:41:16.145Z,18.17
2022-12-31T06:43:42.858Z,17.85
2022-12-31T06:46:10.673Z,17.25
2022-12-31T06:48:37.694Z,16.23
2022-12-31T06:51:13.439Z,22.15
2022-12-31T06:53:43.400Z,20.00
2022-12-31T06:56:13.725Z,18.70
2022-12-31T06:58:40.296Z,18.58
2022-12-31T07:01:06.685Z,19.67
2022-12-31T07:03:33.094Z,19.13
2022-12-31T07:06:04.544Z,18.17
2022-12-31T07:08:35.714Z,18.95
2022-12-31T07:11:05.223Z,21.30
2022-12-31T07:13:40.761Z,17.55
2022-12-31T07:16:22.181Z,18.83
2022-12-31T07:18:57.909Z,18.85
2022-12-31T07:21:35.193Z,19.83
2022-12-31T07:24:01.859Z,18.90
2022-12-31T07:26:31.232Z,21.25
2022-12-31T07:29:07.023Z,22.77
2022-12-31T07:31:45.544Z,21.13
2022-12-31T07:34:20.398Z,20.10
2022-12-31T07:36:56.053Z,20.88
2022-12-31T07:39:35.356Z,17.48
2022-12-31T07:42:20.540Z,22.02
2022-12-31T07:44:47.001Z,19.35
2022-12-31T07:47:19.678Z,21.25
2022-12-31T07:49:46.264Z,20.48
2022-12-31T07:52:12.809Z,22.83
2022-12-31T07:54:39.159Z,21.90
2022-12-31T07:57:05.557Z,25.38
2022-12-31T07:59:34.957Z,21.58
2022-12-31T08:02:01.388Z,19.95
2022-12-31T08:04:31.605Z,22.88
2022-12-31T08:07:16.638Z,22.27
2022-12-31T08:09:48.095Z,19.50
2022-12-31T08:12:15.218Z,22.88
2022-12-31T08:14:45.716Z,18.30
2022-12-31T08:17:13.032Z,23.38
2022-12-31T08:19:39.595Z,24.83
2022-12-31T08:22:18.165Z,22.90
2022-12-31T08:25:03.358Z,22.00
2022-12-31T08:27:36.164Z,24.05
2022-12-31T08:30:10.245Z,24.30
2022-12-31T08:32:36.730Z,21.73
2022-12-31T08:35:21.940Z,23.23
2022-12-31T08:37:52.244Z,25.30
2022-12-31T08:40:30.839Z,21.40
2022-12-31T08:42:57.256Z,24.55
2022-12-31T08:45:28.617Z,26.27
2022-12-31T08:48:13.633Z,24.40
2022-12-31T08:50:40.149Z,23.30
2022-12-31T08:53:06.828Z,25.38
2022-12-31T08:55:33.342Z,28.95
2022-12-31T08:58:02.673Z,23.65
2022-12-31T09:00:29.961Z,22.50
2022-12-31T09:03:05.528Z,23.95
2022-12-31T09:05:47.233Z,21.55
2022-12-31T09:08:23.269Z,23.77
2022-12-31T09:13:35.698Z,21.45
2022-12-31T09:16:05.020Z,18.50
2022-12-31T09:18:34.406Z,21.40
2022-12-31T09:21:00.845Z,23.08
2022-12-31T09:23:27.365Z,19.67
2022-12-31T09:25:53.734Z,21.30
2022-12-31T09:28:40.425Z,24.38
2022-12-31T09:31:36.445Z,19.88
2022-12-31T09:34:32.024Z,20.13
2022-12-31T09:37:01.676Z,20.10
2022-12-31T09:39:38.815Z,17.98
2022-12-31T09:42:05.782Z,21.42
2022-12-31T09:44:47.214Z,19.35
2022-12-31T09:47:25.861Z,15.82
2022-12-31T09:50:01.436Z,17.33
2022-12-31T09:52:36.094Z,17.17
2022-12-31T09:55:18.951Z,16.02
2022-12-31T09:58:03.736Z,18.58
2022-12-31T10:00:49.028Z,16.30
2022-12-31T10:03:21.739Z,18.00
2022-12-31T10:05:57.381Z,16.42
2022-12-31T10:08:23.706Z,20.10
2022-12-31T10:10:53.500Z,14.52
2022-12-31T10:13:23.210Z,18.15
2022-12-31T10:15:49.606Z,18.70
2022-12-31T10:18:28.223Z,18.42
2022-12-31T10:21:13.538Z,15.07
2022-12-31T10:23:42.914Z,17.23
2022-12-31T10:26:09.239Z,17.65
2022-12-31T10:28:55.143Z,16.02
2022-12-31T10:31:34.402Z,17.10
2022-12-31T10:34:13.082Z,17.45
2022-12-31T10:36:48.582Z,18.08
2022-12-31T10:39:19.103Z,16.88
2022-12-31T10:42:08.670Z,18.48
2022-12-31T10:44:53.867Z,16.95
2022-12-31T10:47:38.487Z,15.48
2022-12-31T10:50:19.135Z,15.32
2022-12-31T10:52:48.472Z,13.82
2022-12-31T10:55:33.804Z,14.95
2022-12-31T10:58:06.446Z,14.50
2022-12-31T11:00:40.952Z,14.55
2022-12-31T11:03:31.905Z,14.07
2022-12-31T11:06:01.071Z,11.50
2022-12-31T11:08:30.413Z,12.68
2022-12-31T11:11:22.355Z,12.73
2022-12-31T11:14:15.989Z,12.25
2022-12-31T11:16:55.496Z,11.05
2022-12-31T11:19:34.265Z,12.98
2022-12-31T11:22:00.604Z,12.35
2022-12-31T11:24:39.669Z,9.48
2022-12-31T11:27:24.599Z,12.57
2022-12-31T11:30:13.900Z,11.30
2022-12-31T11:32:52.455Z,11.52
2022-12-31T11:35:18.790Z,11.60
2022-12-31T11:38:03.967Z,12.30
2022-12-31T11:40:33.832Z,11.93
2022-12-31T11:43:06.225Z,14.20
2022-12-31T11:45:50.703Z,12.50
2022-12-31T11:48:39.421Z,9.73
2022-12-31T11:51:22.669Z,12.68
2022-12-31T11:54:01.408Z,10.75
2022-12-31T11:56:32.238Z,13.50
2022-12-31T11:58:58.601Z,11.88
2022-12-31T12:01:30.606Z,13.35
2022-12-31T12:03:57.087Z,16.98
2022-12-31T12:06:31.005Z,12.20
2022-12-31T12:09:01.586Z,11.57
2022-12-31T12:11:29.876Z,12.50
2022-12-31T12:13:56.583Z,11.43
2022-12-31T12:16:23.861Z,12.85
2022-12-31T12:19:00.793Z,12.43
2022-12-31T12:21:28.773Z,12.95
2022-12-31T12:23:58.118Z,11.35
2022-12-31T12:26:34.106Z,12.18
2022-12-31T12:29:20.912Z,12.45
2022-12-31T12:31:56.487Z,13.10
2022-12-31T12:34:32.109Z,12.52
2022-12-31T12:36:58.940Z,12.88
2022-12-31T12:39:26.568Z,14.10
2022-12-31T12:42:13.611Z,15.50
2022-12-31T12:44:41.846Z,14.45
2022-12-31T12:47:11.944Z,11.40
2022-12-31T12:49:39.639Z,13.32
2022-12-31T12:52:24.496Z,11.95
2022-12-31T12:55:09.351Z,12.40
2022-12-31T12:57:38.781Z,12.50
2022-12-31T13:00:09.376Z,13.23
2022-12-31T13:02:48.792Z,13.00
2022-12-31T13:05:33.895Z,14.68
2022-12-31T13:08:04.469Z,14.73
2022-12-31T13:10:33.845Z,10.95
2022-12-31T13:13:25.683Z,13.20
2022-12-31T13:16:04.488Z,12.90
2022-12-31T13:18:37.123Z,14.00
2022-12-31T13:21:10.671Z,14.50
2022-12-31T13:23:59.298Z,16.20
2022-12-31T13:26:45.937Z,14.32
2022-12-31T13:29:15.759Z,14.25
2022-12-31T13:31:42.480Z,13.75
2022-12-31T13:34:27.156Z,16.50
2022-12-31T13:36:55.652Z,14.82
2022-12-31T13:39:27.299Z,13.25
2022-12-31T13:42:07.468Z,14.48
2022-12-31T13:44:39.501Z,16.20
2022-12-31T13:47:12.841Z,14.10
2022-12-31T13:49:42.249Z,14.32
2022-12-31T13:52:47.391Z,16.48
2022-12-31T13:55:18.278Z,13.75
2022-12-31T13:58:01.746Z,14.85
2022-12-31T14:00:48.999Z,15.13
2022-12-31T14:03:27.412Z,15.18
2022-12-31T14:05:56.626Z,16.65
2022-12-31T14:08:23.082Z,14.93
2022-12-31T14:11:08.359Z,15.63
2022-12-31T14:13:43.189Z,17.80
2022-12-31T14:16:20.681Z,15.80
2022-12-31T14:18:49.824Z,17.42
2022-12-31T14:21:42.624Z,16.67
2022-12-31T14:24:18.029Z,17.55
2022-12-31T14:26:46.461Z,17.58
2022-12-31T14:29:14.721Z,14.73
2022-12-31T14:31:43.924Z,15.75
2022-12-31T14:34:28.495Z,18.58
2022-12-31T14:37:18.225Z,17.40
2022-12-31T14:40:14.959Z,16.55
2022-12-31T14:42:50.468Z,15.55
2022-12-31T14:45:25.931Z,16.10
2022-12-31T14:47:55.365Z,15.63
2022-12-31T14:50:26.403Z,16.08
2022-12-31T14:52:54.273Z,15.48
2022-12-31T14:55:23.710Z,18.55
2022-12-31T15:00:43.070Z,18.35
2022-12-31T15:03:15.927Z,20.25
2022-12-31T15:05:51.336Z,18.10
2022-12-31T15:08:33.840Z,16.33
2022-12-31T15:11:03.385Z,19.15
2022-12-31T15:13:48.813Z,16.17
2022-12-31T15:16:33.907Z,19.15
2022-12-31T15:19:00.361Z,15.98
2022-12-31T15:21:26.761Z,16.98
2022-12-31T15:24:05.422Z,15.90
2022-12-31T15:26:35.655Z,17.75
2022-12-31T15:29:05.972Z,18.17
2022-12-31T15:31:34.369Z,18.52
2022-12-31T15:34:04.731Z,14.85
2022-12-31T15:36:38.253Z,18.52
2022-12-31T15:39:25.755Z,15.63
2022-12-31T15:42:36.167Z,17.10
2022-12-31T15:44:49.036Z,18.27
2022-12-31T15:47:15.426Z,15.80
2022-12-31T15:49:46.701Z,16.35
2022-12-31T15:52:18.389Z,20.60
2022-12-31T15:54:46.439Z,19.95
2022-12-31T15:57:20.823Z,18.65
2022-12-31T15:59:47.588Z,17.60
2022-12-31T16:02:25.215Z,15.80
2022-12-31T16:04:52.290Z,18.52
2022-12-31T16:07:18.970Z,16.65
2022-12-31T16:09:56.124Z,18.10
2022-12-31T16:12:32.792Z,16.98
2022-12-31T16:15:01.025Z,17.58
2022-12-31T16:17:32.544Z,19.58
2022-12-31T16:20:00.162Z,18.25
2022-12-31T16:22:26.797Z,14.43
2022-12-31T16:27:44.089Z,16.38
2022-12-31T16:30:39.899Z,18.15
2022-12-31T16:33:07.528Z,19.52
2022-12-31T16:35:36.361Z,21.75
2022-12-31T16:38:16.483Z,20.70
2022-12-31T16:41:05.910Z,18.25
2022-12-31T16:43:42.066Z,16.30
2022-12-31T16:46:20.359Z,15.50
2022-12-31T16:48:51.924Z,17.83
2022-12-31T16:51:19.868Z,16.63
2022-12-31T16:53:50.530Z,14.38
2022-12-31T16:56:23.120Z,17.23
2022-12-31T16:58:55.445Z,16.27
2022-12-31T17:01:24.336Z,17.88
2022-12-31T17:03:53.658Z,20.05
2022-12-31T17:06:23.542Z,17.17
2022-12-31T17:08:56.113Z,14.98
2022-12-31T17:11:33.044Z,14.32
2022-12-31T17:14:05.489Z,16.17
2022-12-31T17:16:32.459Z,15.60
2022-12-31T17:19:01.649Z,16.83
2022-12-31T17:21:30.137Z,15.77
2022-12-31T17:24:02.165Z,16.48
2022-12-31T17:26:29.841Z,15.48
2022-12-31T17:28:58.333Z,14.75
2022-12-31T17:31:32.458Z,15.68
2022-12-31T17:34:15.276Z,16.45
2022-12-31T17:36:57.480Z,15.55
2022-12-31T17:39:24.349Z,15.70
2022-12-31T17:41:56.074Z,17.95
2022-12-31T17:44:25.735Z,15.82
2022-12-31T17:46:52.868Z,14.95
2022-12-31T17:49:35.887Z,16.27
2022-12-31T17:52:02.406Z,16.05
2022-12-31T17:54:29.194Z,16.33
2022-12-31T17:56:55.637Z,12.00
2022-12-31T17:59:23.706Z,14.85
2022-12-31T18:01:50.265Z,17.77
2022-12-31T18:04:21.441Z,15.63
2022-12-31T18:06:48.253Z,12.10
2022-12-31T18:09:16.436Z,15.43
2022-12-31T18:11:42.988Z,13.93
2022-12-31T18:14:11.200Z,14.10
2022-12-31T18:16:37.580Z,14.93
2022-12-31T18:19:06.079Z,13.57
2022-12-31T18:21:34.508Z,14.15
2022-12-31T18:26:27.496Z,15.07
2022-12-31T18:28:54.329Z,13.82
2022-12-31T18:31:24.752Z,13.05
2022-12-31T18:33:51.871Z,16.33
2022-12-31T18:36:19.537Z,13.70
2022-12-31T18:38:46.227Z,11.68
2022-12-31T18:41:35.365Z,14.63
2022-12-31T18:44:01.769Z,15.48
2022-12-31T18:46:28.274Z,14.82
2022-12-31T18:48:54.929Z,14.45
2022-12-31T18:51:32.391Z,14.38
2022-12-31T18:54:06.361Z,14.60
2022-12-31T18:56:37.128Z,12.88
2022-12-31T18:59:05.957Z,14.85
2022-12-31T19:01:39.325Z,11.43
2022-12-31T19:04:19.909Z,13.25
2022-12-31T19:06:48.749Z,13.27
2022-12-31T19:09:43.444Z,14.13
2022-12-31T19:12:02.380Z,10.93
2022-12-31T19:14:29.232Z,11.73
2022-12-31T19:19:26.385Z,12.95
2022-12-31T19:21:52.871Z,14.55
2022-12-31T19:24:33.867Z,14.43
2022-12-31T19:27:12.462Z,14.63
2022-12-31T19:29:48.317Z,12.68
2022-12-31T19:32:17.976Z,11.77
2022-12-31T19:34:48.557Z,13.68
2022-12-31T19:37:20.486Z,12.02
2022-12-31T19:39:52.566Z,14.13
2022-12-31T19:42:19.069Z,13.55
2022-12-31T19:44:50.593Z,14.90
2022-12-31T19:47:20.585Z,14.07
2022-12-31T19:49:46.969Z,13.15
2022-12-31T19:52:13.292Z,15.05
2022-12-31T19:54:42.747Z,12.75
2022-12-31T19:57:09.124Z,14.68
2022-12-31T19:59:44.436Z,12.80
2022-12-31T20:02:10.996Z,14.07
2022-12-31T20:04:37.548Z,12.95
2022-12-31T20:07:03.967Z,12.95
2022-12-31T20:09:30.416Z,14.00
2022-12-31T20:11:56.760Z,13.82
2022-12-31T20:14:23.223Z,14.43
2022-12-31T20:16:49.752Z,14.43
2022-12-31T20:19:16.295Z,15.23
2022-12-31T20:21:44.576Z,15.15
2022-12-31T20:24:11.004Z,13.65
2022-12-31T20:26:37.451Z,13.10
2022-12-31T20:29:04.013Z,15.27
2022-12-31T20:31:30.422Z,16.02
2022-12-31T20:33:57.215Z,16.38
2022-12-31T20:36:23.983Z,15.90
2022-12-31T20:38:50.477Z,12.68
2022-12-31T20:41:18.793Z,14.07
2022-12-31T20:43:45.710Z,13.70
2022-12-31T20:46:16.512Z,11.82
2022-12-31T20:48:43.596Z,14.98
2022-12-31T20:51:10.320Z,14.90
2022-12-31T20:53:36.737Z,14.43
2022-12-31T20:56:04.013Z,13.35
2022-12-31T20:58:30.659Z,14.68
2022-12-31T21:00:57.087Z,15.07
2022-12-31T21:04:03.045Z,15.90
2022-12-31T21:08:36.386Z,14.63
2022-12-31T21:11:03.051Z,16.25
2022-12-31T21:13:31.212Z,14.45
2022-12-31T21:15:57.841Z,17.08
2022-12-31T21:18:24.254Z,15.98
2022-12-31T21:20:51.817Z,18.17
2022-12-31T21:23:19.250Z,14.63
2022-12-31T21:25:46.124Z,15.13
2022-12-31T21:28:13.075Z,13.38
2022-12-31T21:30:40.086Z,16.77
2022-12-31T21:33:06.796Z,16.40
2022-12-31T21:35:44.464Z,17.90
2022-12-31T21:38:15.666Z,16.92
2022-12-31T21:40:42.452Z,18.00
2022-12-31T21:43:08.877Z,16.77
2022-12-31T21:45:35.294Z,16.35
2022-12-31T21:48:20.508Z,16.85
2022-12-31T21:50:48.660Z,15.48
2022-12-31T21:53:21.777Z,17.67
2022-12-31T21:56:09.031Z,16.38
2022-12-31T21:58:36.928Z,16.40
2022-12-31T22:01:25.560Z,15.77
2022-12-31T22:03:52.817Z,15.38
2022-12-31T22:06:20.955Z,17.50
2022-12-31T22:08:49.310Z,17.45
2022-12-31T22:11:15.988Z,17.10
2022-12-31T22:13:42.554Z,15.80
2022-12-31T22:16:09.154Z,19.67
2022-12-31T22:18:38.924Z,18.20
2022-12-31T22:21:18.396Z,16.25
2022-12-31T22:23:46.659Z,16.48
2022-12-31T22:26:17.143Z,15.10
2022-12-31T22:28:44.563Z,16.35
2022-12-31T22:31:18.694Z,19.38
2022-12-31T22:33:45.502Z,15.70
2022-12-31T22:36:13.505Z,18.02
2022-12-31T22:38:42.991Z,17.50
2022-12-31T22:41:11.157Z,18.63
2022-12-31T22:43:41.762Z,16.20
2022-12-31T22:46:09.576Z,19.00
2022-12-31T22:48:36.434Z,15.50
2022-12-31T22:51:03.514Z,16.48
2022-12-31T22:53:36.644Z,17.27
2022-12-31T22:56:03.244Z,17.83
2022-12-31T22:58:29.788Z,16.73
2022-12-31T23:00:59.648Z,20.23
2022-12-31T23:03:26.233Z,17.90
2022-12-31T23:05:58.380Z,17.10
2022-12-31T23:08:24.899Z,17.38
2022-12-31T23:11:01.462Z,18.85
2022-12-31T23:13:51.021Z,16.77
2022-12-31T23:16:36.972Z,17.58
2022-12-31T23:19:22.355Z,15.32
2022-12-31T23:22:07.481Z,16.35
2022-12-31T23:24:34.029Z,16.13
2022-12-31T23:27:00.451Z,17.70
2022-12-31T23:29:26.925Z,13.90
2022-12-31T23:31:53.435Z,18.20
2022-12-31T23:34:19.984Z,15.90
2022-12-31T23:36:46.348Z,16.15
2022-12-31T23:39:13.723Z,16.55
2022-12-31T23:41:40.479Z,14.30
2022-12-31T23:44:06.918Z,14.65
2022-12-31T23:46:33.490Z,16.30
2022-12-31T23:48:59.913Z,15.88
2022-12-31T23:51:26.524Z,16.17
2022-12-31T23:53:53.120Z,14.02
2022-12-31T23:56:23.561Z,17.30
2022-12-31T23:58:53.877Z,16.50
